sensor_id;sensor_type;location;lat;lon;timestamp;temperature;humidity
55203;DHT22;41077;52.956;6.796;2023-06-14T00:01:50;17.40;70.80
55203;DHT22;41077;52.956;6.796;2023-06-14T00:04:16;17.30;70.80
55203;DHT22;41077;52.956;6.796;2023-06-14T07:25:49;17.30;70.90
55203;DHT22;41077;52.956;6.796;2023-06-14T07:28:16;20.40;83.00
55203;DHT22;41077;52.956;6.796;2023-06-14T07:30:43;20.40;81.80
55203;DHT22;41077;52.956;6.796;2023-06-14T07:33:08;20.50;81.40
55203;DHT22;41077;52.956;6.796;2023-06-14T07:35:35;20.50;81.50
55203;DHT22;41077;52.956;6.796;2023-06-14T07:38:01;20.60;80.40
55203;DHT22;41077;52.956;6.796;2023-06-14T07:40:27;20.70;80.00
55203;DHT22;41077;52.956;6.796;2023-06-14T07:42:53;20.80;79.70
55203;DHT22;41077;52.956;6.796;2023-06-14T07:45:20;20.80;79.10
55203;DHT22;41077;52.956;6.796;2023-06-14T07:47:46;21.00;79.30
55203;DHT22;41077;52.956;6.796;2023-06-14T07:50:12;21.10;78.40
55203;DHT22;41077;52.956;6.796;2023-06-14T07:52:39;21.20;78.30
55203;DHT22;41077;52.956;6.796;2023-06-14T07:55:05;21.30;77.70
55203;DHT22;41077;52.956;6.796;2023-06-14T07:57:31;21.40;77.50
55203;DHT22;41077;52.956;6.796;2023-06-14T07:59:57;21.50;78.10
55203;DHT22;41077;52.956;6.796;2023-06-14T08:02:23;21.50;76.60
55203;DHT22;41077;52.956;6.796;2023-06-14T08:04:49;21.60;76.20
55203;DHT22;41077;52.956;6.796;2023-06-14T08:07:15;21.60;76.80
55203;DHT22;41077;52.956;6.796;2023-06-14T08:09:41;21.70;76.70
55203;DHT22;41077;52.956;6.796;2023-06-14T08:12:07;21.80;75.10
55203;DHT22;41077;52.956;6.796;2023-06-14T08:39:02;21.90;75.70
55203;DHT22;41077;52.956;6.796;2023-06-14T08:41:28;22.60;72.30
55203;DHT22;41077;52.956;6.796;2023-06-14T08:43:56;22.60;72.40
55203;DHT22;41077;52.956;6.796;2023-06-14T08:46:24;22.70;72.10
55203;DHT22;41077;52.956;6.796;2023-06-14T08:48:55;22.70;71.50
55203;DHT22;41077;52.956;6.796;2023-06-14T08:51:22;22.70;71.50
55203;DHT22;41077;52.956;6.796;2023-06-14T08:53:54;22.70;71.80
55203;DHT22;41077;52.956;6.796;2023-06-14T08:56:27;22.80;72.00
55203;DHT22;41077;52.956;6.796;2023-06-14T08:58:54;22.80;70.50
55203;DHT22;41077;52.956;6.796;2023-06-14T09:01:22;22.80;70.70
55203;DHT22;41077;52.956;6.796;2023-06-14T09:03:49;22.90;70.70
55203;DHT22;41077;52.956;6.796;2023-06-14T09:06:16;23.00;70.20
55203;DHT22;41077;52.956;6.796;2023-06-14T09:08:42;23.10;69.60
55203;DHT22;41077;52.956;6.796;2023-06-14T09:11:11;23.20;69.10
55203;DHT22;41077;52.956;6.796;2023-06-14T09:13:38;23.30;69.10
55203;DHT22;41077;52.956;6.796;2023-06-14T09:16:05;23.30;69.00
55203;DHT22;41077;52.956;6.796;2023-06-14T09:18:39;23.30;69.20
55203;DHT22;41077;52.956;6.796;2023-06-14T09:21:08;23.50;69.30
55203;DHT22;41077;52.956;6.796;2023-06-14T09:23:42;23.60;68.20
55203;DHT22;41077;52.956;6.796;2023-06-14T09:26:12;23.60;67.10
55203;DHT22;41077;52.956;6.796;2023-06-14T09:28:48;23.70;67.10
55203;DHT22;41077;52.956;6.796;2023-06-14T09:31:18;23.80;67.90
55203;DHT22;41077;52.956;6.796;2023-06-14T09:33:48;23.90;67.40
55203;DHT22;41077;52.956;6.796;2023-06-14T09:36:16;23.90;66.60
55203;DHT22;41077;52.956;6.796;2023-06-14T09:38:55;23.90;66.40
55203;DHT22;41077;52.956;6.796;2023-06-14T09:41:31;24.00;66.20
55203;DHT22;41077;52.956;6.796;2023-06-14T09:43:58;24.10;65.30
55203;DHT22;41077;52.956;6.796;2023-06-14T09:46:27;24.10;65.50
55203;DHT22;41077;52.956;6.796;2023-06-14T09:48:53;24.30;65.70
55203;DHT22;41077;52.956;6.796;2023-06-14T09:51:19;24.40;64.30
55203;DHT22;41077;52.956;6.796;2023-06-14T09:53:49;24.50;64.10
55203;DHT22;41077;52.956;6.796;2023-06-14T09:56:20;24.60;63.10
55203;DHT22;41077;52.956;6.796;2023-06-14T09:58:49;24.70;63.10
55203;DHT22;41077;52.956;6.796;2023-06-14T10:01:16;24.80;62.80
55203;DHT22;41077;52.956;6.796;2023-06-14T10:03:43;24.70;63.00
55203;DHT22;41077;52.956;6.796;2023-06-14T10:06:10;24.70;62.90
55203;DHT22;41077;52.956;6.796;2023-06-14T10:08:36;24.80;62.90
55203;DHT22;41077;52.956;6.796;2023-06-14T10:11:02;24.90;61.60
55203;DHT22;41077;52.956;6.796;2023-06-14T10:13:32;24.90;61.60
55203;DHT22;41077;52.956;6.796;2023-06-14T10:16:15;25.00;61.50
55203;DHT22;41077;52.956;6.796;2023-06-14T10:18:59;25.20;59.30
55203;DHT22;41077;52.956;6.796;2023-06-14T10:21:32;25.30;58.00
55203;DHT22;41077;52.956;6.796;2023-06-14T10:24:03;25.30;58.40
55203;DHT22;41077;52.956;6.796;2023-06-14T10:26:30;25.40;58.90
55203;DHT22;41077;52.956;6.796;2023-06-14T10:29:16;25.50;58.60
55203;DHT22;41077;52.956;6.796;2023-06-14T10:31:46;25.40;57.00
55203;DHT22;41077;52.956;6.796;2023-06-14T10:34:24;25.40;57.40
55203;DHT22;41077;52.956;6.796;2023-06-14T10:37:15;25.40;58.60
55203;DHT22;41077;52.956;6.796;2023-06-14T10:39:43;25.50;59.00
55203;DHT22;41077;52.956;6.796;2023-06-14T10:42:12;25.60;57.70
55203;DHT22;41077;52.956;6.796;2023-06-14T10:44:56;25.70;57.70
55203;DHT22;41077;52.956;6.796;2023-06-14T10:47:30;25.90;59.00
55203;DHT22;41077;52.956;6.796;2023-06-14T10:52:28;26.20;58.00
55203;DHT22;41077;52.956;6.796;2023-06-14T10:55:10;26.20;57.20
55203;DHT22;41077;52.956;6.796;2023-06-14T10:57:51;26.20;57.10
55203;DHT22;41077;52.956;6.796;2023-06-14T11:00:19;26.20;57.50
55203;DHT22;41077;52.956;6.796;2023-06-14T11:05:53;26.40;55.70
55203;DHT22;41077;52.956;6.796;2023-06-14T11:10:59;26.50;57.10
55203;DHT22;41077;52.956;6.796;2023-06-14T11:13:26;26.40;55.60
55203;DHT22;41077;52.956;6.796;2023-06-14T11:15:52;26.50;55.70
55203;DHT22;41077;52.956;6.796;2023-06-14T11:18:23;26.60;56.60
55203;DHT22;41077;52.956;6.796;2023-06-14T11:20:50;26.70;56.90
55203;DHT22;41077;52.956;6.796;2023-06-14T11:23:16;26.80;56.50
55203;DHT22;41077;52.956;6.796;2023-06-14T11:25:42;27.00;56.00
55203;DHT22;41077;52.956;6.796;2023-06-14T11:28:07;27.10;56.10
55203;DHT22;41077;52.956;6.796;2023-06-14T11:30:33;27.20;55.90
55203;DHT22;41077;52.956;6.796;2023-06-14T11:32:59;27.20;55.30
55203;DHT22;41077;52.956;6.796;2023-06-14T11:35:26;27.40;56.50
55203;DHT22;41077;52.956;6.796;2023-06-14T11:37:57;27.60;57.10
55203;DHT22;41077;52.956;6.796;2023-06-14T11:40:24;27.60;56.00
55203;DHT22;41077;52.956;6.796;2023-06-14T11:43:00;27.50;55.40
55203;DHT22;41077;52.956;6.796;2023-06-14T11:45:27;27.30;55.90
55203;DHT22;41077;52.956;6.796;2023-06-14T11:47:55;27.30;56.70
55203;DHT22;41077;52.956;6.796;2023-06-14T11:50:24;27.40;55.30
55203;DHT22;41077;52.956;6.796;2023-06-14T11:52:57;27.50;55.80
55203;DHT22;41077;52.956;6.796;2023-06-14T11:55:25;27.70;55.50
55203;DHT22;41077;52.956;6.796;2023-06-14T11:57:53;27.70;55.40
55203;DHT22;41077;52.956;6.796;2023-06-14T12:00:19;27.90;56.20
55203;DHT22;41077;52.956;6.796;2023-06-14T12:02:54;28.10;54.90
55203;DHT22;41077;52.956;6.796;2023-06-14T12:05:21;28.20;54.40
55203;DHT22;41077;52.956;6.796;2023-06-14T12:07:47;28.30;55.40
55203;DHT22;41077;52.956;6.796;2023-06-14T12:10:14;28.30;54.90
55203;DHT22;41077;52.956;6.796;2023-06-14T12:12:40;28.50;54.70
55203;DHT22;41077;52.956;6.796;2023-06-14T12:15:09;28.50;53.90
55203;DHT22;41077;52.956;6.796;2023-06-14T12:17:37;28.50;53.40
55203;DHT22;41077;52.956;6.796;2023-06-14T12:20:11;28.60;53.60
55203;DHT22;41077;52.956;6.796;2023-06-14T12:22:46;28.70;53.90
55203;DHT22;41077;52.956;6.796;2023-06-14T12:25:23;28.90;54.20
55203;DHT22;41077;52.956;6.796;2023-06-14T12:27:55;29.00;52.60
55203;DHT22;41077;52.956;6.796;2023-06-14T12:30:21;29.00;52.70
55203;DHT22;41077;52.956;6.796;2023-06-14T12:32:47;28.70;52.40
55203;DHT22;41077;52.956;6.796;2023-06-14T12:35:13;28.70;52.40
55203;DHT22;41077;52.956;6.796;2023-06-14T12:37:39;28.70;53.00
55203;DHT22;41077;52.956;6.796;2023-06-14T12:40:05;28.50;53.50
55203;DHT22;41077;52.956;6.796;2023-06-14T12:42:32;28.60;53.20
55203;DHT22;41077;52.956;6.796;2023-06-14T12:44:59;28.90;52.80
55203;DHT22;41077;52.956;6.796;2023-06-14T12:47:25;29.10;52.80
55203;DHT22;41077;52.956;6.796;2023-06-14T12:49:51;29.20;52.90
55203;DHT22;41077;52.956;6.796;2023-06-14T12:52:16;29.30;52.10
55203;DHT22;41077;52.956;6.796;2023-06-14T12:54:42;29.40;52.40
55203;DHT22;41077;52.956;6.796;2023-06-14T12:57:08;29.60;52.40
55203;DHT22;41077;52.956;6.796;2023-06-14T12:59:35;29.70;51.60
55203;DHT22;41077;52.956;6.796;2023-06-14T13:02:17;29.80;51.90
55203;DHT22;41077;52.956;6.796;2023-06-14T13:04:43;29.80;51.20
55203;DHT22;41077;52.956;6.796;2023-06-14T13:07:09;30.00;51.20
55203;DHT22;41077;52.956;6.796;2023-06-14T13:09:36;30.00;50.00
55203;DHT22;41077;52.956;6.796;2023-06-14T13:12:02;30.00;50.60
55203;DHT22;41077;52.956;6.796;2023-06-14T13:14:28;30.20;51.20
55203;DHT22;41077;52.956;6.796;2023-06-14T13:16:53;30.30;50.70
55203;DHT22;41077;52.956;6.796;2023-06-14T13:19:19;30.60;49.90
55203;DHT22;41077;52.956;6.796;2023-06-14T13:21:45;30.70;50.50
55203;DHT22;41077;52.956;6.796;2023-06-14T13:24:10;30.80;50.20
55203;DHT22;41077;52.956;6.796;2023-06-14T13:26:36;31.00;50.00
55203;DHT22;41077;52.956;6.796;2023-06-14T13:29:02;30.90;50.00
55203;DHT22;41077;52.956;6.796;2023-06-14T13:31:28;30.60;50.20
55203;DHT22;41077;52.956;6.796;2023-06-14T13:33:54;30.20;49.60
55203;DHT22;41077;52.956;6.796;2023-06-14T13:36:20;29.80;50.40
55203;DHT22;41077;52.956;6.796;2023-06-14T13:38:46;29.50;50.60
55203;DHT22;41077;52.956;6.796;2023-06-14T13:41:12;28.90;50.50
55203;DHT22;41077;52.956;6.796;2023-06-14T13:43:37;28.40;50.70
55203;DHT22;41077;52.956;6.796;2023-06-14T13:46:03;28.10;51.50
55203;DHT22;41077;52.956;6.796;2023-06-14T13:48:29;28.20;53.40
55203;DHT22;41077;52.956;6.796;2023-06-14T13:50:55;28.40;52.30
55203;DHT22;41077;52.956;6.796;2023-06-14T13:53:20;28.30;53.10
55203;DHT22;41077;52.956;6.796;2023-06-14T13:55:46;28.20;52.80
55203;DHT22;41077;52.956;6.796;2023-06-14T13:58:12;28.20;53.10
55203;DHT22;41077;52.956;6.796;2023-06-14T14:00:37;28.50;53.10
55203;DHT22;41077;52.956;6.796;2023-06-14T14:03:06;29.20;53.00
55203;DHT22;41077;52.956;6.796;2023-06-14T14:05:32;29.80;51.00
55203;DHT22;41077;52.956;6.796;2023-06-14T14:07:58;30.00;51.00
55203;DHT22;41077;52.956;6.796;2023-06-14T14:10:24;30.30;51.30
55203;DHT22;41077;52.956;6.796;2023-06-14T14:12:51;30.60;49.40
55203;DHT22;41077;52.956;6.796;2023-06-14T14:15:17;30.70;49.50
55203;DHT22;41077;52.956;6.796;2023-06-14T14:17:43;30.80;49.50
55203;DHT22;41077;52.956;6.796;2023-06-14T14:20:09;30.50;48.90
55203;DHT22;41077;52.956;6.796;2023-06-14T14:22:37;30.30;49.60
55203;DHT22;41077;52.956;6.796;2023-06-14T14:25:02;30.00;49.00
55203;DHT22;41077;52.956;6.796;2023-06-14T14:27:28;29.40;49.60
55203;DHT22;41077;52.956;6.796;2023-06-14T14:29:54;28.80;50.60
55203;DHT22;41077;52.956;6.796;2023-06-14T14:32:19;28.50;52.00
55203;DHT22;41077;52.956;6.796;2023-06-14T16:26:49;28.20;52.10
55203;DHT22;41077;52.956;6.796;2023-06-14T16:29:15;28.90;54.10
55203;DHT22;41077;52.956;6.796;2023-06-14T16:31:41;29.70;52.00
55203;DHT22;41077;52.956;6.796;2023-06-14T16:34:07;30.30;50.50
55203;DHT22;41077;52.956;6.796;2023-06-14T16:36:39;30.70;49.60
55203;DHT22;41077;52.956;6.796;2023-06-14T16:39:05;31.10;50.30
55203;DHT22;41077;52.956;6.796;2023-06-14T16:41:30;31.50;48.20
55203;DHT22;41077;52.956;6.796;2023-06-14T16:43:56;31.80;48.30
55203;DHT22;41077;52.956;6.796;2023-06-14T16:46:32;32.00;48.00
55203;DHT22;41077;52.956;6.796;2023-06-14T16:48:59;32.20;46.80
55203;DHT22;41077;52.956;6.796;2023-06-14T16:51:25;32.30;47.20
55203;DHT22;41077;52.956;6.796;2023-06-14T16:53:51;32.60;46.70
55203;DHT22;41077;52.956;6.796;2023-06-14T16:56:19;32.80;46.90
55203;DHT22;41077;52.956;6.796;2023-06-14T16:58:45;32.80;48.20
55203;DHT22;41077;52.956;6.796;2023-06-14T17:01:11;32.90;47.00
55203;DHT22;41077;52.956;6.796;2023-06-14T17:03:38;32.80;46.00
55203;DHT22;41077;52.956;6.796;2023-06-14T17:06:04;32.80;46.40
55203;DHT22;41077;52.956;6.796;2023-06-14T17:08:32;32.40;45.90
55203;DHT22;41077;52.956;6.796;2023-06-14T17:10:57;31.90;46.40
55203;DHT22;41077;52.956;6.796;2023-06-14T17:13:24;31.00;46.60
55203;DHT22;41077;52.956;6.796;2023-06-14T17:15:50;30.40;47.70
55203;DHT22;41077;52.956;6.796;2023-06-14T17:18:17;29.90;48.30
55203;DHT22;41077;52.956;6.796;2023-06-14T17:20:42;29.60;48.40
55203;DHT22;41077;52.956;6.796;2023-06-14T19:10:38;29.30;49.00
55203;DHT22;41077;52.956;6.796;2023-06-14T22:31:13;23.70;70.00
55203;DHT22;41077;52.956;6.796;2023-06-14T23:10:34;19.00;81.50
